sensor_id;sensor_type;location;lat;lon;timestamp;P1;durP1;ratioP1;P2;durP2;ratioP2
37164;SDS011;23057;48.554;14.454;2023-09-07T00:00:14;4.95;;;3.42;;
37164;SDS011;23057;48.554;14.454;2023-09-07T00:02:45;3.53;;;2.85;;
37164;SDS011;23057;48.554;14.454;2023-09-07T00:05:16;5.55;;;3.35;;
37164;SDS011;23057;48.554;14.454;2023-09-07T00:07:47;5.72;;;3.30;;
37164;SDS011;23057;48.554;14.454;2023-09-07T00:10:18;4.20;;;3.45;;
37164;SDS011;23057;48.554;14.454;2023-09-07T00:12:49;7.13;;;3.75;;
37164;SDS011;23057;48.554;14.454;2023-09-07T00:15:20;4.38;;;3.53;;
37164;SDS011;23057;48.554;14.454;2023-09-07T00:17:51;5.25;;;3.83;;
37164;SDS011;23057;48.554;14.454;2023-09-07T00:20:22;7.57;;;3.55;;
37164;SDS011;23057;48.554;14.454;2023-09-07T00:22:53;4.78;;;3.80;;
37164;SDS011;23057;48.554;14.454;2023-09-07T00:25:24;5.20;;;4.05;;
37164;SDS011;23057;48.554;14.454;2023-09-07T00:27:55;4.07;;;3.22;;
37164;SDS011;23057;48.554;14.454;2023-09-07T00:30:26;4.13;;;3.17;;
37164;SDS011;23057;48.554;14.454;2023-09-07T00:32:57;5.22;;;4.28;;
37164;SDS011;23057;48.554;14.454;2023-09-07T00:35:28;6.00;;;3.17;;
37164;SDS011;23057;48.554;14.454;2023-09-07T00:37:59;5.88;;;3.65;;
37164;SDS011;23057;48.554;14.454;2023-09-07T00:40:30;6.45;;;3.45;;
37164;SDS011;23057;48.554;14.454;2023-09-07T00:43:01;7.70;;;3.75;;
37164;SDS011;23057;48.554;14.454;2023-09-07T00:45:32;8.77;;;4.22;;
37164;SDS011;23057;48.554;14.454;2023-09-07T00:48:03;5.85;;;4.00;;
37164;SDS011;23057;48.554;14.454;2023-09-07T00:50:35;6.32;;;3.92;;
37164;SDS011;23057;48.554;14.454;2023-09-07T00:53:06;5.13;;;3.83;;
37164;SDS011;23057;48.554;14.454;2023-09-07T00:55:37;5.78;;;3.53;;
37164;SDS011;23057;48.554;14.454;2023-09-07T00:58:09;5.55;;;3.97;;
37164;SDS011;23057;48.554;14.454;2023-09-07T01:00:41;5.97;;;3.65;;
37164;SDS011;23057;48.554;14.454;2023-09-07T01:03:13;4.63;;;3.38;;
37164;SDS011;23057;48.554;14.454;2023-09-07T01:08:49;8.02;;;4.30;;
37164;SDS011;23057;48.554;14.454;2023-09-07T01:11:26;4.85;;;3.95;;
37164;SDS011;23057;48.554;14.454;2023-09-07T01:14:07;5.15;;;3.63;;
37164;SDS011;23057;48.554;14.454;2023-09-07T01:16:38;6.15;;;3.83;;
37164;SDS011;23057;48.554;14.454;2023-09-07T01:19:10;6.30;;;4.40;;
37164;SDS011;23057;48.554;14.454;2023-09-07T01:21:41;5.28;;;3.50;;
37164;SDS011;23057;48.554;14.454;2023-09-07T01:24:14;5.63;;;3.70;;
37164;SDS011;23057;48.554;14.454;2023-09-07T01:26:47;4.80;;;4.00;;
37164;SDS011;23057;48.554;14.454;2023-09-07T01:29:19;6.97;;;4.50;;
37164;SDS011;23057;48.554;14.454;2023-09-07T01:31:50;5.78;;;3.80;;
37164;SDS011;23057;48.554;14.454;2023-09-07T01:34:21;6.25;;;3.35;;
37164;SDS011;23057;48.554;14.454;2023-09-07T01:36:52;6.22;;;4.03;;
37164;SDS011;23057;48.554;14.454;2023-09-07T01:39:22;5.75;;;4.13;;
37164;SDS011;23057;48.554;14.454;2023-09-07T01:41:54;9.20;;;4.50;;
37164;SDS011;23057;48.554;14.454;2023-09-07T01:44:24;6.38;;;4.00;;
37164;SDS011;23057;48.554;14.454;2023-09-07T01:46:56;6.47;;;3.65;;
37164;SDS011;23057;48.554;14.454;2023-09-07T01:49:27;6.97;;;4.18;;
37164;SDS011;23057;48.554;14.454;2023-09-07T01:51:58;6.72;;;4.30;;
37164;SDS011;23057;48.554;14.454;2023-09-07T01:54:29;6.05;;;4.15;;
37164;SDS011;23057;48.554;14.454;2023-09-07T01:57:00;6.93;;;4.47;;
37164;SDS011;23057;48.554;14.454;2023-09-07T01:59:32;7.97;;;4.35;;
37164;SDS011;23057;48.554;14.454;2023-09-07T02:02:03;6.15;;;4.07;;
37164;SDS011;23057;48.554;14.454;2023-09-07T02:04:34;7.82;;;4.70;;
37164;SDS011;23057;48.554;14.454;2023-09-07T02:07:04;8.73;;;4.03;;
37164;SDS011;23057;48.554;14.454;2023-09-07T02:09:36;7.32;;;4.18;;
37164;SDS011;23057;48.554;14.454;2023-09-07T02:12:07;6.05;;;3.92;;
37164;SDS011;23057;48.554;14.454;2023-09-07T02:14:38;6.00;;;3.83;;
37164;SDS011;23057;48.554;14.454;2023-09-07T02:17:09;5.50;;;3.70;;
37164;SDS011;23057;48.554;14.454;2023-09-07T02:19:39;7.30;;;4.35;;
37164;SDS011;23057;48.554;14.454;2023-09-07T02:22:10;6.60;;;4.10;;
37164;SDS011;23057;48.554;14.454;2023-09-07T02:24:41;5.35;;;3.75;;
37164;SDS011;23057;48.554;14.454;2023-09-07T02:27:12;4.82;;;3.92;;
37164;SDS011;23057;48.554;14.454;2023-09-07T02:29:43;5.72;;;3.80;;
37164;SDS011;23057;48.554;14.454;2023-09-07T02:32:14;5.95;;;4.07;;
37164;SDS011;23057;48.554;14.454;2023-09-07T02:34:45;8.02;;;3.97;;
37164;SDS011;23057;48.554;14.454;2023-09-07T02:37:16;4.57;;;3.78;;
37164;SDS011;23057;48.554;14.454;2023-09-07T02:39:46;8.60;;;3.78;;
37164;SDS011;23057;48.554;14.454;2023-09-07T02:42:17;5.25;;;4.03;;
37164;SDS011;23057;48.554;14.454;2023-09-07T02:44:48;5.00;;;4.00;;
37164;SDS011;23057;48.554;14.454;2023-09-07T02:47:19;6.82;;;4.18;;
37164;SDS011;23057;48.554;14.454;2023-09-07T02:49:49;7.03;;;4.18;;
37164;SDS011;23057;48.554;14.454;2023-09-07T02:52:20;9.45;;;3.60;;
37164;SDS011;23057;48.554;14.454;2023-09-07T02:54:51;6.10;;;3.75;;
37164;SDS011;23057;48.554;14.454;2023-09-07T02:57:22;5.38;;;3.72;;
37164;SDS011;23057;48.554;14.454;2023-09-07T02:59:53;6.93;;;4.03;;
37164;SDS011;23057;48.554;14.454;2023-09-07T03:02:24;6.47;;;4.03;;
37164;SDS011;23057;48.554;14.454;2023-09-07T03:04:54;5.10;;;4.10;;
37164;SDS011;23057;48.554;14.454;2023-09-07T03:07:33;5.72;;;3.50;;
37164;SDS011;23057;48.554;14.454;2023-09-07T03:10:04;5.65;;;3.90;;
37164;SDS011;23057;48.554;14.454;2023-09-07T03:12:35;6.13;;;3.47;;
37164;SDS011;23057;48.554;14.454;2023-09-07T03:15:06;5.20;;;3.75;;
37164;SDS011;23057;48.554;14.454;2023-09-07T03:17:37;5.22;;;3.67;;
37164;SDS011;23057;48.554;14.454;2023-09-07T03:20:08;7.03;;;4.28;;
37164;SDS011;23057;48.554;14.454;2023-09-07T03:22:43;6.78;;;3.42;;
37164;SDS011;23057;48.554;14.454;2023-09-07T03:25:15;6.63;;;3.95;;
37164;SDS011;23057;48.554;14.454;2023-09-07T03:27:46;4.70;;;3.60;;
37164;SDS011;23057;48.554;14.454;2023-09-07T03:30:16;5.43;;;3.42;;
37164;SDS011;23057;48.554;14.454;2023-09-07T03:32:47;5.55;;;3.88;;
37164;SDS011;23057;48.554;14.454;2023-09-07T03:35:18;6.75;;;3.78;;
37164;SDS011;23057;48.554;14.454;2023-09-07T03:37:50;6.95;;;3.67;;
37164;SDS011;23057;48.554;14.454;2023-09-07T03:40:20;5.25;;;3.90;;
37164;SDS011;23057;48.554;14.454;2023-09-07T03:42:51;7.97;;;4.53;;
37164;SDS011;23057;48.554;14.454;2023-09-07T03:45:22;4.55;;;3.80;;
37164;SDS011;23057;48.554;14.454;2023-09-07T03:47:53;5.70;;;4.00;;
37164;SDS011;23057;48.554;14.454;2023-09-07T03:50:24;5.53;;;4.03;;
37164;SDS011;23057;48.554;14.454;2023-09-07T03:52:55;6.95;;;4.43;;
37164;SDS011;23057;48.554;14.454;2023-09-07T03:55:26;5.28;;;4.32;;
37164;SDS011;23057;48.554;14.454;2023-09-07T03:57:56;5.20;;;4.20;;
37164;SDS011;23057;48.554;14.454;2023-09-07T04:00:27;4.80;;;4.10;;
37164;SDS011;23057;48.554;14.454;2023-09-07T04:02:58;8.63;;;4.13;;
37164;SDS011;23057;48.554;14.454;2023-09-07T04:05:29;6.70;;;4.28;;
37164;SDS011;23057;48.554;14.454;2023-09-07T04:07:59;5.68;;;4.40;;
37164;SDS011;23057;48.554;14.454;2023-09-07T04:10:32;6.43;;;4.28;;
37164;SDS011;23057;48.554;14.454;2023-09-07T04:13:06;7.32;;;4.15;;
37164;SDS011;23057;48.554;14.454;2023-09-07T04:15:43;6.65;;;4.40;;
37164;SDS011;23057;48.554;14.454;2023-09-07T04:18:15;4.63;;;3.35;;
37164;SDS011;23057;48.554;14.454;2023-09-07T04:20:46;6.05;;;4.20;;
37164;SDS011;23057;48.554;14.454;2023-09-07T04:23:17;6.40;;;3.78;;
37164;SDS011;23057;48.554;14.454;2023-09-07T04:25:48;8.57;;;3.88;;
37164;SDS011;23057;48.554;14.454;2023-09-07T04:28:19;7.18;;;4.10;;
37164;SDS011;23057;48.554;14.454;2023-09-07T04:30:49;4.40;;;3.65;;
37164;SDS011;23057;48.554;14.454;2023-09-07T04:33:20;5.70;;;3.85;;
37164;SDS011;23057;48.554;14.454;2023-09-07T04:35:51;5.28;;;4.10;;
37164;SDS011;23057;48.554;14.454;2023-09-07T04:38:22;4.80;;;4.15;;
37164;SDS011;23057;48.554;14.454;2023-09-07T04:40:53;4.95;;;4.00;;
37164;SDS011;23057;48.554;14.454;2023-09-07T04:43:23;6.97;;;4.97;;
37164;SDS011;23057;48.554;14.454;2023-09-07T04:45:54;5.95;;;3.80;;
37164;SDS011;23057;48.554;14.454;2023-09-07T04:48:25;5.53;;;4.07;;
37164;SDS011;23057;48.554;14.454;2023-09-07T04:50:59;6.50;;;4.00;;
37164;SDS011;23057;48.554;14.454;2023-09-07T04:53:36;7.30;;;3.92;;
37164;SDS011;23057;48.554;14.454;2023-09-07T04:56:09;7.30;;;4.25;;
37164;SDS011;23057;48.554;14.454;2023-09-07T04:58:40;4.88;;;3.70;;
37164;SDS011;23057;48.554;14.454;2023-09-07T05:01:11;5.97;;;3.85;;
37164;SDS011;23057;48.554;14.454;2023-09-07T05:03:42;7.85;;;4.05;;
37164;SDS011;23057;48.554;14.454;2023-09-07T05:06:13;4.88;;;4.07;;
37164;SDS011;23057;48.554;14.454;2023-09-07T05:08:44;6.97;;;4.35;;
37164;SDS011;23057;48.554;14.454;2023-09-07T05:11:15;6.68;;;3.65;;
37164;SDS011;23057;48.554;14.454;2023-09-07T05:13:45;5.95;;;3.75;;
37164;SDS011;23057;48.554;14.454;2023-09-07T05:16:16;7.82;;;4.25;;
37164;SDS011;23057;48.554;14.454;2023-09-07T05:18:47;5.65;;;4.30;;
37164;SDS011;23057;48.554;14.454;2023-09-07T05:21:18;5.72;;;4.07;;
37164;SDS011;23057;48.554;14.454;2023-09-07T05:23:49;5.65;;;4.13;;
37164;SDS011;23057;48.554;14.454;2023-09-07T05:26:20;5.25;;;4.13;;
37164;SDS011;23057;48.554;14.454;2023-09-07T05:28:54;5.90;;;4.38;;
37164;SDS011;23057;48.554;14.454;2023-09-07T05:31:24;8.30;;;4.15;;
37164;SDS011;23057;48.554;14.454;2023-09-07T05:33:55;7.78;;;4.10;;
37164;SDS011;23057;48.554;14.454;2023-09-07T05:36:26;5.43;;;4.00;;
37164;SDS011;23057;48.554;14.454;2023-09-07T05:38:57;11.02;;;4.07;;
37164;SDS011;23057;48.554;14.454;2023-09-07T05:41:29;5.53;;;4.13;;
37164;SDS011;23057;48.554;14.454;2023-09-07T05:44:00;7.78;;;4.18;;
37164;SDS011;23057;48.554;14.454;2023-09-07T05:46:31;8.55;;;3.88;;
37164;SDS011;23057;48.554;14.454;2023-09-07T05:49:02;6.13;;;4.00;;
37164;SDS011;23057;48.554;14.454;2023-09-07T05:51:32;5.70;;;4.43;;
37164;SDS011;23057;48.554;14.454;2023-09-07T05:54:03;6.13;;;3.70;;
37164;SDS011;23057;48.554;14.454;2023-09-07T05:56:34;4.47;;;3.33;;
37164;SDS011;23057;48.554;14.454;2023-09-07T05:59:05;4.80;;;3.63;;
37164;SDS011;23057;48.554;14.454;2023-09-07T06:01:36;7.80;;;4.03;;
37164;SDS011;23057;48.554;14.454;2023-09-07T06:04:09;5.85;;;3.58;;
37164;SDS011;23057;48.554;14.454;2023-09-07T06:06:41;7.05;;;3.88;;
37164;SDS011;23057;48.554;14.454;2023-09-07T06:09:11;5.03;;;3.58;;
37164;SDS011;23057;48.554;14.454;2023-09-07T06:11:42;4.90;;;3.55;;
37164;SDS011;23057;48.554;14.454;2023-09-07T06:14:13;5.78;;;3.67;;
37164;SDS011;23057;48.554;14.454;2023-09-07T06:16:44;5.22;;;3.88;;
37164;SDS011;23057;48.554;14.454;2023-09-07T06:19:14;5.80;;;3.67;;
37164;SDS011;23057;48.554;14.454;2023-09-07T06:21:45;4.68;;;3.80;;
37164;SDS011;23057;48.554;14.454;2023-09-07T06:24:16;6.22;;;3.83;;
37164;SDS011;23057;48.554;14.454;2023-09-07T06:26:47;5.53;;;3.42;;
37164;SDS011;23057;48.554;14.454;2023-09-07T06:29:18;6.50;;;3.88;;
37164;SDS011;23057;48.554;14.454;2023-09-07T06:31:49;5.00;;;3.60;;
37164;SDS011;23057;48.554;14.454;2023-09-07T06:34:20;7.15;;;4.22;;
37164;SDS011;23057;48.554;14.454;2023-09-07T06:36:50;5.38;;;3.83;;
37164;SDS011;23057;48.554;14.454;2023-09-07T06:39:21;6.13;;;3.85;;
37164;SDS011;23057;48.554;14.454;2023-09-07T06:41:52;6.20;;;3.88;;
37164;SDS011;23057;48.554;14.454;2023-09-07T06:44:23;7.43;;;3.90;;
37164;SDS011;23057;48.554;14.454;2023-09-07T06:46:54;7.93;;;3.65;;
37164;SDS011;23057;48.554;14.454;2023-09-07T06:49:25;6.32;;;3.85;;
37164;SDS011;23057;48.554;14.454;2023-09-07T06:51:59;4.90;;;3.95;;
37164;SDS011;23057;48.554;14.454;2023-09-07T06:54:30;5.43;;;3.65;;
37164;SDS011;23057;48.554;14.454;2023-09-07T06:57:01;7.40;;;3.45;;
37164;SDS011;23057;48.554;14.454;2023-09-07T06:59:32;6.78;;;3.90;;
37164;SDS011;23057;48.554;14.454;2023-09-07T07:02:03;5.38;;;3.58;;
37164;SDS011;23057;48.554;14.454;2023-09-07T07:04:35;5.07;;;3.90;;
37164;SDS011;23057;48.554;14.454;2023-09-07T07:07:06;5.63;;;3.72;;
37164;SDS011;23057;48.554;14.454;2023-09-07T07:09:37;6.35;;;3.70;;
37164;SDS011;23057;48.554;14.454;2023-09-07T07:12:07;6.82;;;4.07;;
37164;SDS011;23057;48.554;14.454;2023-09-07T07:14:38;6.45;;;3.45;;
37164;SDS011;23057;48.554;14.454;2023-09-07T07:17:09;5.05;;;3.92;;
37164;SDS011;23057;48.554;14.454;2023-09-07T07:19:40;6.60;;;3.85;;
37164;SDS011;23057;48.554;14.454;2023-09-07T07:22:13;6.00;;;3.85;;
37164;SDS011;23057;48.554;14.454;2023-09-07T07:24:44;6.28;;;4.18;;
37164;SDS011;23057;48.554;14.454;2023-09-07T07:27:14;5.10;;;3.75;;
37164;SDS011;23057;48.554;14.454;2023-09-07T07:29:45;5.97;;;3.85;;
37164;SDS011;23057;48.554;14.454;2023-09-07T07:32:16;6.05;;;3.42;;
37164;SDS011;23057;48.554;14.454;2023-09-07T07:34:47;5.80;;;3.88;;
37164;SDS011;23057;48.554;14.454;2023-09-07T07:37:19;5.70;;;4.40;;
37164;SDS011;23057;48.554;14.454;2023-09-07T07:39:50;6.43;;;4.05;;
37164;SDS011;23057;48.554;14.454;2023-09-07T07:42:21;7.97;;;4.47;;
37164;SDS011;23057;48.554;14.454;2023-09-07T07:44:51;4.93;;;3.67;;
37164;SDS011;23057;48.554;14.454;2023-09-07T07:47:22;6.80;;;4.00;;
37164;SDS011;23057;48.554;14.454;2023-09-07T07:49:53;6.00;;;3.70;;
37164;SDS011;23057;48.554;14.454;2023-09-07T07:52:24;6.25;;;3.47;;
37164;SDS011;23057;48.554;14.454;2023-09-07T07:54:55;7.78;;;3.28;;
37164;SDS011;23057;48.554;14.454;2023-09-07T07:57:26;5.55;;;4.72;;
37164;SDS011;23057;48.554;14.454;2023-09-07T07:59:56;7.93;;;3.10;;
37164;SDS011;23057;48.554;14.454;2023-09-07T08:02:27;6.38;;;3.58;;
37164;SDS011;23057;48.554;14.454;2023-09-07T08:04:58;3.90;;;2.97;;
37164;SDS011;23057;48.554;14.454;2023-09-07T08:07:29;7.32;;;3.20;;
37164;SDS011;23057;48.554;14.454;2023-09-07T08:10:00;8.05;;;3.22;;
37164;SDS011;23057;48.554;14.454;2023-09-07T08:12:31;6.72;;;2.95;;
37164;SDS011;23057;48.554;14.454;2023-09-07T08:15:01;15.60;;;3.20;;
37164;SDS011;23057;48.554;14.454;2023-09-07T08:17:33;6.85;;;3.20;;
37164;SDS011;23057;48.554;14.454;2023-09-07T08:20:04;4.90;;;2.67;;
37164;SDS011;23057;48.554;14.454;2023-09-07T08:22:37;5.07;;;2.90;;
37164;SDS011;23057;48.554;14.454;2023-09-07T08:25:11;12.35;;;3.47;;
37164;SDS011;23057;48.554;14.454;2023-09-07T08:27:44;12.88;;;3.40;;
37164;SDS011;23057;48.554;14.454;2023-09-07T08:30:16;20.80;;;4.25;;
37164;SDS011;23057;48.554;14.454;2023-09-07T08:32:52;8.15;;;3.05;;
37164;SDS011;23057;48.554;14.454;2023-09-07T08:35:23;4.00;;;2.45;;
37164;SDS011;23057;48.554;14.454;2023-09-07T08:37:57;4.55;;;2.90;;
37164;SDS011;23057;48.554;14.454;2023-09-07T08:40:28;3.95;;;2.38;;
37164;SDS011;23057;48.554;14.454;2023-09-07T08:43:00;5.45;;;2.55;;
37164;SDS011;23057;48.554;14.454;2023-09-07T08:45:41;7.25;;;3.13;;
37164;SDS011;23057;48.554;14.454;2023-09-07T08:48:21;4.93;;;2.50;;
37164;SDS011;23057;48.554;14.454;2023-09-07T08:50:54;3.92;;;2.40;;
37164;SDS011;23057;48.554;14.454;2023-09-07T08:53:26;6.68;;;2.78;;
37164;SDS011;23057;48.554;14.454;2023-09-07T08:56:01;5.55;;;2.65;;
37164;SDS011;23057;48.554;14.454;2023-09-07T08:58:34;4.97;;;2.53;;
37164;SDS011;23057;48.554;14.454;2023-09-07T09:01:04;14.48;;;4.25;;
37164;SDS011;23057;48.554;14.454;2023-09-07T09:03:36;5.88;;;2.40;;
37164;SDS011;23057;48.554;14.454;2023-09-07T09:06:07;4.22;;;2.83;;
37164;SDS011;23057;48.554;14.454;2023-09-07T09:08:41;3.78;;;2.50;;
37164;SDS011;23057;48.554;14.454;2023-09-07T09:11:20;4.10;;;2.33;;
37164;SDS011;23057;48.554;14.454;2023-09-07T09:13:53;5.45;;;2.45;;
37164;SDS011;23057;48.554;14.454;2023-09-07T09:16:24;3.90;;;2.22;;
37164;SDS011;23057;48.554;14.454;2023-09-07T09:18:56;2.72;;;1.60;;
37164;SDS011;23057;48.554;14.454;2023-09-07T09:21:28;5.25;;;2.70;;
37164;SDS011;23057;48.554;14.454;2023-09-07T09:23:58;4.85;;;2.28;;
37164;SDS011;23057;48.554;14.454;2023-09-07T09:26:30;5.15;;;2.10;;
37164;SDS011;23057;48.554;14.454;2023-09-07T09:29:03;3.72;;;2.20;;
37164;SDS011;23057;48.554;14.454;2023-09-07T09:31:34;5.22;;;2.13;;
37164;SDS011;23057;48.554;14.454;2023-09-07T09:34:05;3.13;;;2.10;;
37164;SDS011;23057;48.554;14.454;2023-09-07T09:36:40;4.95;;;2.13;;
37164;SDS011;23057;48.554;14.454;2023-09-07T09:39:22;5.93;;;2.17;;
37164;SDS011;23057;48.554;14.454;2023-09-07T09:41:55;3.08;;;2.03;;
37164;SDS011;23057;48.554;14.454;2023-09-07T09:44:27;7.07;;;2.38;;
37164;SDS011;23057;48.554;14.454;2023-09-07T09:47:00;3.25;;;1.85;;
37164;SDS011;23057;48.554;14.454;2023-09-07T09:49:31;3.90;;;2.00;;
37164;SDS011;23057;48.554;14.454;2023-09-07T09:52:03;3.35;;;2.13;;
37164;SDS011;23057;48.554;14.454;2023-09-07T09:54:36;4.35;;;2.22;;
37164;SDS011;23057;48.554;14.454;2023-09-07T09:57:08;3.58;;;2.10;;
37164;SDS011;23057;48.554;14.454;2023-09-07T09:59:39;3.17;;;2.00;;
37164;SDS011;23057;48.554;14.454;2023-09-07T10:02:10;3.55;;;2.10;;
37164;SDS011;23057;48.554;14.454;2023-09-07T10:04:42;3.00;;;1.85;;
37164;SDS011;23057;48.554;14.454;2023-09-07T10:07:13;5.97;;;2.20;;
37164;SDS011;23057;48.554;14.454;2023-09-07T10:09:44;5.25;;;2.17;;
37164;SDS011;23057;48.554;14.454;2023-09-07T10:12:15;4.90;;;1.90;;
37164;SDS011;23057;48.554;14.454;2023-09-07T10:14:46;3.78;;;1.90;;
37164;SDS011;23057;48.554;14.454;2023-09-07T10:17:21;4.15;;;2.47;;
37164;SDS011;23057;48.554;14.454;2023-09-07T10:20:03;5.32;;;2.13;;
37164;SDS011;23057;48.554;14.454;2023-09-07T10:22:37;5.78;;;2.10;;
37164;SDS011;23057;48.554;14.454;2023-09-07T10:25:21;6.72;;;1.98;;
37164;SDS011;23057;48.554;14.454;2023-09-07T10:27:53;4.45;;;1.98;;
37164;SDS011;23057;48.554;14.454;2023-09-07T10:30:23;5.38;;;1.98;;
37164;SDS011;23057;48.554;14.454;2023-09-07T10:32:54;3.40;;;1.90;;
37164;SDS011;23057;48.554;14.454;2023-09-07T10:35:25;7.70;;;2.28;;
37164;SDS011;23057;48.554;14.454;2023-09-07T10:37:58;4.60;;;1.80;;
37164;SDS011;23057;48.554;14.454;2023-09-07T10:40:31;3.25;;;1.90;;
37164;SDS011;23057;48.554;14.454;2023-09-07T10:43:02;2.95;;;1.80;;
37164;SDS011;23057;48.554;14.454;2023-09-07T10:45:34;4.10;;;1.75;;
37164;SDS011;23057;48.554;14.454;2023-09-07T10:48:05;4.88;;;2.20;;
37164;SDS011;23057;48.554;14.454;2023-09-07T10:50:44;3.30;;;1.95;;
37164;SDS011;23057;48.554;14.454;2023-09-07T10:53:24;5.50;;;2.20;;
37164;SDS011;23057;48.554;14.454;2023-09-07T10:56:02;3.72;;;1.83;;
37164;SDS011;23057;48.554;14.454;2023-09-07T10:58:35;5.85;;;2.08;;
37164;SDS011;23057;48.554;14.454;2023-09-07T11:01:12;2.85;;;1.75;;
37164;SDS011;23057;48.554;14.454;2023-09-07T11:03:43;3.30;;;1.95;;
37164;SDS011;23057;48.554;14.454;2023-09-07T11:06:17;3.55;;;2.00;;
37164;SDS011;23057;48.554;14.454;2023-09-07T11:08:51;2.67;;;1.70;;
37164;SDS011;23057;48.554;14.454;2023-09-07T11:11:22;3.35;;;1.95;;
37164;SDS011;23057;48.554;14.454;2023-09-07T11:13:53;3.90;;;1.73;;
37164;SDS011;23057;48.554;14.454;2023-09-07T11:16:24;2.55;;;1.50;;
37164;SDS011;23057;48.554;14.454;2023-09-07T11:18:57;3.50;;;1.90;;
37164;SDS011;23057;48.554;14.454;2023-09-07T11:21:36;9.85;;;2.17;;
37164;SDS011;23057;48.554;14.454;2023-09-07T11:24:07;2.92;;;1.98;;
37164;SDS011;23057;48.554;14.454;2023-09-07T11:26:45;6.95;;;2.20;;
37164;SDS011;23057;48.554;14.454;2023-09-07T11:29:17;4.53;;;1.83;;
37164;SDS011;23057;48.554;14.454;2023-09-07T11:31:48;3.30;;;2.00;;
37164;SDS011;23057;48.554;14.454;2023-09-07T11:34:19;5.03;;;2.00;;
37164;SDS011;23057;48.554;14.454;2023-09-07T11:36:51;5.30;;;2.22;;
37164;SDS011;23057;48.554;14.454;2023-09-07T11:39:21;4.03;;;2.40;;
37164;SDS011;23057;48.554;14.454;2023-09-07T11:41:52;2.92;;;1.73;;
37164;SDS011;23057;48.554;14.454;2023-09-07T11:44:23;2.28;;;1.70;;
37164;SDS011;23057;48.554;14.454;2023-09-07T11:46:54;4.65;;;1.90;;
37164;SDS011;23057;48.554;14.454;2023-09-07T11:49:25;3.45;;;1.50;;
37164;SDS011;23057;48.554;14.454;2023-09-07T11:51:57;4.65;;;2.00;;
37164;SDS011;23057;48.554;14.454;2023-09-07T11:54:28;3.17;;;1.80;;
37164;SDS011;23057;48.554;14.454;2023-09-07T11:56:59;2.85;;;1.63;;
37164;SDS011;23057;48.554;14.454;2023-09-07T11:59:30;3.15;;;2.00;;
37164;SDS011;23057;48.554;14.454;2023-09-07T12:02:02;2.50;;;1.60;;
37164;SDS011;23057;48.554;14.454;2023-09-07T12:04:33;3.75;;;2.05;;
37164;SDS011;23057;48.554;14.454;2023-09-07T12:07:06;3.17;;;1.90;;
37164;SDS011;23057;48.554;14.454;2023-09-07T12:09:37;3.60;;;2.05;;
37164;SDS011;23057;48.554;14.454;2023-09-07T12:12:08;3.28;;;1.88;;
37164;SDS011;23057;48.554;14.454;2023-09-07T12:14:40;2.80;;;2.00;;
37164;SDS011;23057;48.554;14.454;2023-09-07T12:17:12;3.03;;;1.95;;
37164;SDS011;23057;48.554;14.454;2023-09-07T12:19:42;3.30;;;1.50;;
37164;SDS011;23057;48.554;14.454;2023-09-07T12:22:15;5.30;;;1.77;;
37164;SDS011;23057;48.554;14.454;2023-09-07T12:24:46;3.00;;;1.50;;
37164;SDS011;23057;48.554;14.454;2023-09-07T12:27:17;5.70;;;2.10;;
37164;SDS011;23057;48.554;14.454;2023-09-07T12:29:48;3.15;;;1.92;;
37164;SDS011;23057;48.554;14.454;2023-09-07T12:32:20;3.55;;;2.28;;
37164;SDS011;23057;48.554;14.454;2023-09-07T12:34:51;4.13;;;2.00;;
37164;SDS011;23057;48.554;14.454;2023-09-07T12:37:23;3.03;;;1.77;;
37164;SDS011;23057;48.554;14.454;2023-09-07T12:39:54;2.60;;;1.77;;
37164;SDS011;23057;48.554;14.454;2023-09-07T12:42:25;4.00;;;1.98;;
37164;SDS011;23057;48.554;14.454;2023-09-07T12:44:56;3.22;;;1.92;;
37164;SDS011;23057;48.554;14.454;2023-09-07T12:47:27;4.28;;;2.00;;
37164;SDS011;23057;48.554;14.454;2023-09-07T12:49:57;5.40;;;2.15;;
37164;SDS011;23057;48.554;14.454;2023-09-07T12:52:28;5.40;;;1.98;;
37164;SDS011;23057;48.554;14.454;2023-09-07T12:54:59;3.83;;;2.00;;
37164;SDS011;23057;48.554;14.454;2023-09-07T12:57:30;4.55;;;1.85;;
37164;SDS011;23057;48.554;14.454;2023-09-07T13:00:01;3.13;;;1.60;;
37164;SDS011;23057;48.554;14.454;2023-09-07T13:02:36;4.65;;;1.95;;
37164;SDS011;23057;48.554;14.454;2023-09-07T13:05:07;3.78;;;1.80;;
37164;SDS011;23057;48.554;14.454;2023-09-07T13:07:38;2.92;;;1.92;;
37164;SDS011;23057;48.554;14.454;2023-09-07T13:10:10;3.42;;;1.90;;
37164;SDS011;23057;48.554;14.454;2023-09-07T13:12:41;3.63;;;2.13;;
37164;SDS011;23057;48.554;14.454;2023-09-07T13:15:12;2.63;;;1.95;;
37164;SDS011;23057;48.554;14.454;2023-09-07T13:17:43;2.20;;;1.45;;
37164;SDS011;23057;48.554;14.454;2023-09-07T13:20:14;3.72;;;1.55;;
37164;SDS011;23057;48.554;14.454;2023-09-07T13:22:46;4.03;;;1.70;;
37164;SDS011;23057;48.554;14.454;2023-09-07T13:25:17;2.50;;;1.60;;
37164;SDS011;23057;48.554;14.454;2023-09-07T13:27:48;3.63;;;1.80;;
37164;SDS011;23057;48.554;14.454;2023-09-07T13:30:20;4.10;;;1.88;;
37164;SDS011;23057;48.554;14.454;2023-09-07T13:32:51;3.03;;;1.77;;
37164;SDS011;23057;48.554;14.454;2023-09-07T13:35:22;3.25;;;1.80;;
37164;SDS011;23057;48.554;14.454;2023-09-07T13:37:55;5.60;;;2.05;;
37164;SDS011;23057;48.554;14.454;2023-09-07T13:40:25;4.75;;;1.60;;
37164;SDS011;23057;48.554;14.454;2023-09-07T13:42:59;2.67;;;1.90;;
37164;SDS011;23057;48.554;14.454;2023-09-07T13:45:30;3.28;;;1.60;;
37164;SDS011;23057;48.554;14.454;2023-09-07T13:48:01;2.83;;;1.73;;
37164;SDS011;23057;48.554;14.454;2023-09-07T13:50:32;5.03;;;1.90;;
37164;SDS011;23057;48.554;14.454;2023-09-07T13:53:03;4.88;;;2.20;;
37164;SDS011;23057;48.554;14.454;2023-09-07T13:55:34;5.65;;;2.42;;
37164;SDS011;23057;48.554;14.454;2023-09-07T13:58:05;4.32;;;2.40;;
37164;SDS011;23057;48.554;14.454;2023-09-07T14:00:36;5.82;;;2.50;;
37164;SDS011;23057;48.554;14.454;2023-09-07T14:03:08;3.40;;;2.00;;
37164;SDS011;23057;48.554;14.454;2023-09-07T14:05:39;5.25;;;2.03;;
37164;SDS011;23057;48.554;14.454;2023-09-07T14:08:09;6.50;;;1.67;;
37164;SDS011;23057;48.554;14.454;2023-09-07T14:10:40;5.85;;;2.08;;
37164;SDS011;23057;48.554;14.454;2023-09-07T14:13:11;5.53;;;2.20;;
37164;SDS011;23057;48.554;14.454;2023-09-07T14:15:42;3.60;;;2.03;;
37164;SDS011;23057;48.554;14.454;2023-09-07T14:18:13;4.57;;;2.33;;
37164;SDS011;23057;48.554;14.454;2023-09-07T14:20:43;4.63;;;2.22;;
37164;SDS011;23057;48.554;14.454;2023-09-07T14:23:14;5.03;;;2.25;;
37164;SDS011;23057;48.554;14.454;2023-09-07T14:25:45;5.35;;;1.88;;
37164;SDS011;23057;48.554;14.454;2023-09-07T14:28:17;3.83;;;2.03;;
37164;SDS011;23057;48.554;14.454;2023-09-07T14:30:47;3.60;;;2.17;;
37164;SDS011;23057;48.554;14.454;2023-09-07T14:33:18;3.28;;;2.15;;
37164;SDS011;23057;48.554;14.454;2023-09-07T14:35:51;3.83;;;2.35;;
37164;SDS011;23057;48.554;14.454;2023-09-07T14:38:24;3.45;;;2.30;;
37164;SDS011;23057;48.554;14.454;2023-09-07T14:40:59;4.32;;;2.50;;
37164;SDS011;23057;48.554;14.454;2023-09-07T14:43:31;3.75;;;2.70;;
37164;SDS011;23057;48.554;14.454;2023-09-07T14:46:02;3.67;;;2.50;;
37164;SDS011;23057;48.554;14.454;2023-09-07T14:48:33;7.15;;;2.50;;
37164;SDS011;23057;48.554;14.454;2023-09-07T14:51:04;3.80;;;2.25;;
37164;SDS011;23057;48.554;14.454;2023-09-07T14:53:35;3.42;;;2.50;;
37164;SDS011;23057;48.554;14.454;2023-09-07T14:56:06;4.25;;;2.58;;
37164;SDS011;23057;48.554;14.454;2023-09-07T14:58:37;5.97;;;2.38;;
37164;SDS011;23057;48.554;14.454;2023-09-07T15:01:08;7.50;;;2.40;;